Time;durP1;ratioP1;P1;durP2;ratioP2;P2;SDS_P1;SDS_P2;PMS_P1;PMS_P2;Temp;Humidity;BMP_temperature;BMP_pressure;BME280_temperature;BME280_humidity;BME280_pressure;Samples;Min_cycle;Max_cycle;Signal;HPM_P1;HPM_P2
2021/11/26 00:01:56;;;;;;;56.88;28.77;;;3.30;99.90;;;;;;5055342;28;20024;-85
2021/11/26 00:04:22;;;;;;;80.18;35.80;;;3.40;99.90;;;;;;5051314;28;20116;-85
2021/11/26 00:06:47;;;;;;;99.40;40.72;;;3.30;99.90;;;;;;5057372;28;20064;-85
2021/11/26 00:09:13;;;;;;;53.30;27.92;;;3.30;99.90;;;;;;5055201;28;20043;-85
2021/11/26 00:11:39;;;;;;;80.55;36.30;;;3.70;99.90;;;;;;5046528;28;20031;-85
2021/11/26 00:16:43;;;;;;;51.28;27.50;;;3.50;99.90;;;;;;5051932;28;20494;-85
2021/11/26 00:19:09;;;;;;;58.28;29.85;;;3.00;99.90;;;;;;5053384;28;20029;-85
2021/11/26 00:21:39;;;;;;;55.03;28.77;;;3.40;99.90;;;;;;5055206;28;20037;-85
2021/11/26 00:24:07;;;;;;;58.90;29.63;;;3.40;99.90;;;;;;5054794;28;20028;-85
2021/11/26 00:26:33;;;;;;;53.03;28.25;;;3.10;99.90;;;;;;5055083;28;20037;-85
2021/11/26 00:28:58;;;;;;;53.80;28.27;;;3.00;99.90;;;;;;5054403;28;20074;-85
2021/11/26 00:31:24;;;;;;;64.07;33.03;;;3.20;99.90;;;;;;5050484;28;20029;-84
2021/11/26 00:33:50;;;;;;;53.70;28.15;;;3.10;99.90;;;;;;5057478;28;20595;-85
2021/11/26 00:36:15;;;;;;;56.40;30.13;;;3.00;99.90;;;;;;5054565;28;20563;-85
2021/11/26 00:38:41;;;;;;;80.72;42.50;;;3.40;99.90;;;;;;5054429;28;20025;-85
2021/11/26 00:41:07;;;;;;;91.95;46.67;;;3.20;99.90;;;;;;5054535;28;20021;-85
2021/11/26 00:43:32;;;;;;;77.28;38.90;;;3.20;99.90;;;;;;5050729;28;20512;-85
2021/11/26 00:45:58;;;;;;;56.38;29.20;;;3.30;99.90;;;;;;5055081;28;20067;-85
2021/11/26 00:48:24;;;;;;;53.22;28.77;;;3.10;99.90;;;;;;5055089;28;20039;-85
2021/11/26 00:50:50;;;;;;;55.03;29.42;;;3.10;99.90;;;;;;5054332;28;20104;-85
2021/11/26 00:53:16;;;;;;;55.58;30.40;;;3.20;99.90;;;;;;5054611;28;20036;-85
2021/11/26 00:55:42;;;;;;;61.78;32.60;;;3.10;99.90;;;;;;5051178;28;20105;-85
2021/11/26 00:58:07;;;;;;;53.63;28.58;;;3.40;99.90;;;;;;5052007;28;20032;-85
2021/11/26 01:00:35;;;;;;;66.00;36.85;;;3.10;99.90;;;;;;5054681;28;20021;-85
2021/11/26 01:03:01;;;;;;;52.53;29.40;;;3.20;99.90;;;;;;5054173;28;20115;-85
2021/11/26 01:05:27;;;;;;;52.60;29.08;;;3.10;99.90;;;;;;5054038;28;20108;-85
2021/11/26 01:07:52;;;;;;;59.60;31.83;;;3.00;99.90;;;;;;5053648;28;20523;-84
2021/11/26 01:10:21;;;;;;;84.45;41.55;;;3.00;99.90;;;;;;5050446;28;20017;-85
2021/11/26 01:12:47;;;;;;;63.80;33.80;;;3.30;99.90;;;;;;5055790;28;20024;-85
2021/11/26 01:15:16;;;;;;;80.70;37.83;;;3.20;99.90;;;;;;5054386;28;20017;-85
2021/11/26 01:17:43;;;;;;;75.82;37.72;;;3.40;99.90;;;;;;5054161;28;20396;-85
2021/11/26 01:20:12;;;;;;;56.03;30.42;;;3.00;99.90;;;;;;5045779;28;20111;-85
2021/11/26 01:22:37;;;;;;;59.47;31.45;;;3.00;99.90;;;;;;5051129;28;20033;-85
2021/11/26 01:25:06;;;;;;;69.82;35.67;;;3.00;99.90;;;;;;5053301;28;20491;-85
2021/11/26 01:27:32;;;;;;;60.60;32.03;;;3.10;99.90;;;;;;5055702;28;20060;-83
2021/11/26 01:29:58;;;;;;;54.88;30.27;;;3.10;99.90;;;;;;5053876;28;20226;-83
2021/11/26 01:32:24;;;;;;;55.03;29.92;;;3.10;99.90;;;;;;5053939;28;20394;-83
2021/11/26 01:34:49;;;;;;;56.20;29.77;;;3.10;99.90;;;;;;5051448;28;20043;-83
2021/11/26 01:37:15;;;;;;;61.70;31.90;;;3.00;99.90;;;;;;5050745;28;20076;-83
2021/11/26 01:39:41;;;;;;;76.18;38.00;;;3.30;99.90;;;;;;5054787;28;20032;-83
2021/11/26 01:42:06;;;;;;;58.85;31.55;;;3.10;99.90;;;;;;5053456;28;20021;-83
2021/11/26 01:44:32;;;;;;;55.67;31.10;;;2.90;99.90;;;;;;5053726;28;20478;-83
2021/11/26 01:46:58;;;;;;;58.03;31.27;;;3.20;99.90;;;;;;5053638;28;20485;-83
2021/11/26 01:49:23;;;;;;;53.50;29.80;;;2.90;99.90;;;;;;5033783;28;20058;-83
2021/11/26 01:51:49;;;;;;;58.95;31.65;;;3.00;99.90;;;;;;5055777;28;20033;-82
2021/11/26 01:54:15;;;;;;;91.25;43.72;;;3.00;99.90;;;;;;5053305;28;20418;-83
2021/11/26 01:56:40;;;;;;;74.28;39.25;;;3.00;99.90;;;;;;5041434;28;20036;-83
2021/11/26 01:59:07;;;;;;;73.25;38.95;;;3.20;99.90;;;;;;5053650;28;20085;-83
2021/11/26 02:01:33;;;;;;;55.08;30.33;;;3.50;99.90;;;;;;5046600;28;20460;-83
2021/11/26 02:03:59;;;;;;;61.53;33.40;;;3.20;99.90;;;;;;5054259;28;20074;-83
2021/11/26 02:06:24;;;;;;;55.90;29.17;;;3.10;99.90;;;;;;5053808;28;20045;-83
2021/11/26 02:08:50;;;;;;;52.75;29.35;;;3.20;99.90;;;;;;5054467;28;20409;-82
2021/11/26 02:11:17;;;;;;;50.85;30.27;;;3.00;99.90;;;;;;5058134;28;20028;-83
2021/11/26 02:13:43;;;;;;;55.10;30.33;;;3.40;99.90;;;;;;5054055;28;20116;-82
2021/11/26 02:16:10;;;;;;;56.92;30.73;;;2.80;99.90;;;;;;5055664;28;20167;-83
2021/11/26 02:18:36;;;;;;;55.90;31.27;;;2.90;99.90;;;;;;5057163;28;20033;-82
2021/11/26 02:21:02;;;;;;;53.60;30.38;;;3.00;99.90;;;;;;5056982;28;20405;-83
2021/11/26 02:23:28;;;;;;;53.95;28.77;;;3.20;99.90;;;;;;5056821;28;20122;-83
2021/11/26 02:25:53;;;;;;;62.83;31.38;;;3.30;99.90;;;;;;5056478;28;20052;-84
2021/11/26 02:28:20;;;;;;;57.15;31.65;;;2.90;99.90;;;;;;5053919;28;20048;-83
2021/11/26 02:30:46;;;;;;;61.72;33.80;;;3.00;99.90;;;;;;5059164;28;20025;-83
2021/11/26 02:33:14;;;;;;;83.20;42.60;;;2.80;99.90;;;;;;5056975;28;20385;-83
2021/11/26 02:35:41;;;;;;;66.38;34.55;;;3.00;99.90;;;;;;5046734;28;20397;-83
2021/11/26 02:38:09;;;;;;;66.60;36.30;;;3.30;99.90;;;;;;5056569;28;20468;-83
2021/11/26 02:40:38;;;;;;;71.43;38.85;;;2.90;99.90;;;;;;5053852;28;20485;-83
2021/11/26 02:43:04;;;;;;;73.18;36.65;;;2.90;99.90;;;;;;5056120;28;20099;-83
2021/11/26 02:45:30;;;;;;;60.92;33.42;;;2.90;99.90;;;;;;5058179;28;20032;-83
2021/11/26 02:47:56;;;;;;;62.08;33.00;;;2.90;99.90;;;;;;5057021;28;20374;-84
2021/11/26 02:50:24;;;;;;;56.88;31.00;;;2.90;99.90;;;;;;5056601;28;20023;-83
2021/11/26 02:52:50;;;;;;;59.97;32.55;;;2.90;99.90;;;;;;5053948;28;20024;-82
2021/11/26 02:55:20;;;;;;;64.45;33.17;;;3.30;99.90;;;;;;5051063;28;20494;-83
2021/11/26 02:57:46;;;;;;;74.85;40.35;;;2.90;99.90;;;;;;5058168;28;20029;-83
2021/11/26 03:00:14;;;;;;;63.83;34.47;;;2.80;99.90;;;;;;5056854;28;20027;-83
2021/11/26 03:02:40;;;;;;;58.25;31.63;;;2.80;99.90;;;;;;5046484;28;20060;-83
2021/11/26 03:05:06;;;;;;;54.13;30.27;;;2.80;99.90;;;;;;5056241;28;20469;-83
2021/11/26 03:07:32;;;;;;;56.00;31.50;;;2.80;99.90;;;;;;5052423;28;20432;-83
2021/11/26 03:09:58;;;;;;;62.08;34.80;;;2.90;99.90;;;;;;5057063;28;20025;-83
2021/11/26 03:12:24;;;;;;;55.92;31.10;;;2.90;99.90;;;;;;5067705;28;20031;-83
2021/11/26 03:14:49;;;;;;;67.13;35.75;;;3.20;99.90;;;;;;5047750;28;20549;-83
2021/11/26 03:17:15;;;;;;;108.95;48.05;;;2.90;99.90;;;;;;5047257;28;20068;-84
2021/11/26 03:19:41;;;;;;;55.75;31.52;;;3.10;99.90;;;;;;5053772;28;20501;-83
2021/11/26 03:22:07;;;;;;;69.20;34.90;;;2.70;99.90;;;;;;5054056;28;20021;-83
2021/11/26 03:24:33;;;;;;;75.20;36.92;;;2.70;99.90;;;;;;5057581;28;20036;-83
2021/11/26 03:26:58;;;;;;;58.03;32.25;;;3.40;99.90;;;;;;5046264;28;20048;-83
2021/11/26 03:29:24;;;;;;;87.85;39.22;;;2.80;99.90;;;;;;5055813;28;20025;-83
2021/11/26 03:31:50;;;;;;;63.33;33.45;;;3.30;99.90;;;;;;5053449;28;20035;-83
2021/11/26 03:34:15;;;;;;;55.22;31.08;;;2.90;99.90;;;;;;5052831;28;20025;-83
2021/11/26 03:36:41;;;;;;;59.80;32.03;;;2.80;99.90;;;;;;5056675;28;20032;-83
2021/11/26 03:39:07;;;;;;;63.42;32.80;;;2.80;99.90;;;;;;5055421;28;20444;-83
2021/11/26 03:41:32;;;;;;;59.45;32.20;;;2.90;99.90;;;;;;5056055;28;20032;-83
2021/11/26 03:43:58;;;;;;;61.97;34.38;;;2.80;99.90;;;;;;5049141;28;20523;-83
2021/11/26 03:46:24;;;;;;;53.13;29.55;;;2.80;99.90;;;;;;5035014;28;20021;-83
2021/11/26 03:48:49;;;;;;;57.13;32.33;;;2.70;99.90;;;;;;5057856;28;20397;-83
2021/11/26 03:51:15;;;;;;;87.78;42.13;;;3.20;99.90;;;;;;5055578;28;20056;-83
2021/11/26 03:53:41;;;;;;;67.93;34.90;;;2.80;99.90;;;;;;5055484;28;20063;-83
2021/11/26 03:56:06;;;;;;;64.93;33.35;;;2.90;99.90;;;;;;5055264;28;20024;-83
2021/11/26 03:58:32;;;;;;;60.92;32.70;;;2.60;99.90;;;;;;5052209;28;20024;-83
2021/11/26 04:00:58;;;;;;;75.95;37.63;;;3.00;99.90;;;;;;5056556;28;20477;-83
2021/11/26 04:03:23;;;;;;;62.38;33.13;;;2.50;99.90;;;;;;5046943;28;20115;-83
2021/11/26 04:05:49;;;;;;;60.10;33.67;;;2.70;99.90;;;;;;5054765;28;20075;-83
2021/11/26 04:08:15;;;;;;;65.20;34.03;;;2.70;99.90;;;;;;5055102;28;20048;-83
2021/11/26 04:10:41;;;;;;;59.47;32.95;;;2.70;99.90;;;;;;5051574;28;20431;-83
2021/11/26 04:13:08;;;;;;;58.17;32.40;;;2.70;99.90;;;;;;5054162;28;20060;-83
2021/11/26 04:15:37;;;;;;;62.30;34.60;;;2.80;99.90;;;;;;5059023;28;20019;-83
2021/11/26 04:18:04;;;;;;;75.28;38.67;;;3.10;99.90;;;;;;5057351;28;20028;-83
2021/11/26 04:20:31;;;;;;;60.33;33.88;;;2.70;99.90;;;;;;5044774;28;20104;-83
2021/11/26 04:22:57;;;;;;;71.22;38.22;;;2.70;99.90;;;;;;5055140;28;20507;-83
2021/11/26 04:25:23;;;;;;;79.97;41.08;;;2.70;99.90;;;;;;5050677;28;20033;-84
2021/11/26 04:27:49;;;;;;;57.30;30.70;;;2.70;99.90;;;;;;5056712;28;20128;-83
2021/11/26 04:30:17;;;;;;;66.10;34.88;;;2.70;99.90;;;;;;5054768;28;20098;-83
2021/11/26 04:32:43;;;;;;;61.15;33.78;;;2.70;99.90;;;;;;5054044;28;20048;-83
2021/11/26 04:35:10;;;;;;;84.88;42.58;;;2.70;99.90;;;;;;5054485;28;20503;-83
2021/11/26 04:37:37;;;;;;;58.28;32.33;;;2.70;99.90;;;;;;5051787;28;20422;-83
2021/11/26 04:40:05;;;;;;;61.65;32.45;;;2.60;99.90;;;;;;5054227;28;20106;-83
2021/11/26 04:42:31;;;;;;;59.13;32.53;;;2.60;99.90;;;;;;5055825;28;20028;-83
2021/11/26 04:44:57;;;;;;;60.17;32.78;;;2.50;99.90;;;;;;5055134;28;20404;-83
2021/11/26 04:47:23;;;;;;;54.50;31.05;;;2.70;99.90;;;;;;5054266;28;20048;-83
2021/11/26 04:49:49;;;;;;;61.72;33.25;;;2.70;99.90;;;;;;5051527;28;20028;-83
2021/11/26 04:52:14;;;;;;;64.18;34.28;;;2.60;99.90;;;;;;5051329;28;20431;-83
2021/11/26 04:54:40;;;;;;;60.13;31.92;;;2.60;99.90;;;;;;5055187;28;20088;-83
2021/11/26 04:57:06;;;;;;;55.42;31.52;;;3.10;99.90;;;;;;5054297;28;20051;-84
2021/11/26 04:59:31;;;;;;;56.33;31.23;;;2.80;99.90;;;;;;5054164;28;20021;-83
2021/11/26 05:01:57;;;;;;;65.30;34.22;;;2.80;99.90;;;;;;5054257;28;20449;-84
2021/11/26 05:04:23;;;;;;;52.78;30.15;;;2.70;99.90;;;;;;5033788;28;20045;-83
2021/11/26 05:06:49;;;;;;;64.43;34.28;;;2.60;99.90;;;;;;5056567;28;20033;-83
2021/11/26 05:09:15;;;;;;;78.45;38.17;;;2.70;99.90;;;;;;5054063;28;20017;-82
2021/11/26 05:11:40;;;;;;;59.65;31.58;;;2.70;99.90;;;;;;5054061;28;20029;-83
2021/11/26 05:14:08;;;;;;;61.58;33.47;;;2.70;99.90;;;;;;5053838;28;20017;-83
2021/11/26 05:16:34;;;;;;;55.53;32.55;;;2.70;99.90;;;;;;5048106;28;20063;-83
2021/11/26 05:19:00;;;;;;;50.03;29.40;;;2.70;99.90;;;;;;5053960;28;20068;-83
2021/11/26 05:21:25;;;;;;;50.17;28.23;;;2.60;99.90;;;;;;5054540;28;20025;-83
2021/11/26 05:23:51;;;;;;;94.45;42.97;;;2.90;99.90;;;;;;5054098;28;20461;-83
2021/11/26 05:26:17;;;;;;;49.38;28.10;;;2.60;99.90;;;;;;5054617;28;20029;-83
2021/11/26 05:28:43;;;;;;;57.13;31.52;;;2.60;99.90;;;;;;5050512;28;20087;-83
2021/11/26 05:31:08;;;;;;;105.72;47.17;;;2.70;99.90;;;;;;5052154;28;20490;-84
2021/11/26 05:33:34;;;;;;;49.83;29.02;;;2.70;99.90;;;;;;5053465;28;20032;-83
2021/11/26 05:36:00;;;;;;;70.63;38.78;;;2.70;99.90;;;;;;5054022;28;20021;-83
2021/11/26 05:38:26;;;;;;;50.53;29.63;;;2.70;99.90;;;;;;5053438;28;20033;-83
2021/11/26 05:40:52;;;;;;;45.97;27.67;;;3.20;99.90;;;;;;5053370;28;20029;-83
2021/11/26 05:43:18;;;;;;;49.20;29.20;;;3.20;99.90;;;;;;5050839;28;20043;-83
2021/11/26 05:45:45;;;;;;;44.30;27.20;;;2.60;99.90;;;;;;5059837;28;20028;-83
2021/11/26 05:48:11;;;;;;;43.28;27.02;;;2.70;99.90;;;;;;5057753;28;20040;-83
2021/11/26 05:50:37;;;;;;;59.67;31.88;;;2.70;99.90;;;;;;5057784;28;20147;-83
2021/11/26 05:53:03;;;;;;;54.78;30.17;;;2.70;99.90;;;;;;5057771;28;20119;-83
2021/11/26 05:55:31;;;;;;;48.15;28.65;;;2.60;99.90;;;;;;5053841;28;20103;-83
2021/11/26 05:57:58;;;;;;;46.55;28.73;;;3.00;99.90;;;;;;5058254;28;20405;-83
2021/11/26 06:00:25;;;;;;;46.97;28.15;;;3.10;99.90;;;;;;5057095;28;20036;-83
2021/11/26 06:02:51;;;;;;;51.97;31.27;;;2.80;99.90;;;;;;5057200;28;20031;-83
2021/11/26 06:05:17;;;;;;;47.25;27.73;;;2.80;99.90;;;;;;5057687;28;20045;-83
2021/11/26 06:07:44;;;;;;;47.00;26.67;;;2.80;99.90;;;;;;5054122;28;20042;-83
2021/11/26 06:10:11;;;;;;;57.60;32.92;;;3.20;99.90;;;;;;5055543;28;20031;-83
2021/11/26 06:12:40;;;;;;;61.22;35.80;;;2.90;99.90;;;;;;5057826;28;20103;-83
2021/11/26 06:15:07;;;;;;;52.58;31.00;;;3.00;99.90;;;;;;5057176;28;20017;-82
2021/11/26 06:17:32;;;;;;;46.72;28.55;;;2.90;99.90;;;;;;5056903;28;20021;-83
2021/11/26 06:19:58;;;;;;;45.45;27.10;;;2.90;99.90;;;;;;5057315;28;20035;-83
2021/11/26 06:22:24;;;;;;;47.80;28.13;;;3.00;99.90;;;;;;5053336;28;20052;-83
2021/11/26 06:24:49;;;;;;;50.92;30.73;;;3.00;99.90;;;;;;5059007;28;20063;-83
2021/11/26 06:27:15;;;;;;;55.20;33.47;;;3.00;99.90;;;;;;5056801;28;20069;-83
2021/11/26 06:29:41;;;;;;;47.30;26.58;;;3.10;99.90;;;;;;5057544;28;20040;-83
2021/11/26 06:32:06;;;;;;;43.78;25.23;;;2.90;99.90;;;;;;5057007;28;20076;-83
2021/11/26 06:34:32;;;;;;;39.80;24.38;;;2.90;99.90;;;;;;5053271;28;20089;-83
2021/11/26 06:36:58;;;;;;;44.15;25.65;;;2.90;99.90;;;;;;5057433;28;20032;-83
2021/11/26 06:39:23;;;;;;;44.47;25.92;;;2.90;99.90;;;;;;5057795;28;20032;-83
2021/11/26 06:41:50;;;;;;;45.03;26.23;;;2.90;99.90;;;;;;5057067;28;20032;-83
2021/11/26 06:44:15;;;;;;;45.50;27.20;;;2.80;99.90;;;;;;5056677;28;20032;-83
2021/11/26 06:46:41;;;;;;;44.35;26.63;;;3.20;99.90;;;;;;5052238;28;20406;-83
2021/11/26 06:49:08;;;;;;;43.40;26.33;;;3.00;99.90;;;;;;5055625;28;20508;-83
2021/11/26 06:51:34;;;;;;;47.53;26.55;;;3.40;99.90;;;;;;5056289;28;20029;-82
2021/11/26 06:54:00;;;;;;;46.33;26.33;;;3.00;99.90;;;;;;5048414;28;20031;-83
2021/11/26 06:56:26;;;;;;;46.72;25.65;;;2.90;99.90;;;;;;5055353;28;20155;-83
2021/11/26 06:58:54;;;;;;;44.10;26.65;;;2.80;99.90;;;;;;5055272;28;20103;-83
2021/11/26 07:01:21;;;;;;;44.33;25.85;;;2.90;99.90;;;;;;5052898;28;20020;-83
2021/11/26 07:03:46;;;;;;;42.00;25.73;;;2.90;99.90;;;;;;5058852;28;20503;-83
2021/11/26 07:06:12;;;;;;;46.78;27.33;;;2.80;99.90;;;;;;5056078;28;20037;-82
2021/11/26 07:08:38;;;;;;;44.10;26.30;;;3.00;99.90;;;;;;5056932;28;20181;-83
2021/11/26 07:11:03;;;;;;;46.30;27.40;;;2.90;99.90;;;;;;5056027;28;20383;-83
2021/11/26 07:13:29;;;;;;;46.92;26.77;;;3.00;99.90;;;;;;5052263;28;20079;-83
2021/11/26 07:15:55;;;;;;;49.88;27.73;;;3.00;99.90;;;;;;5057477;28;20025;-83
2021/11/26 07:18:21;;;;;;;47.10;27.50;;;2.90;99.90;;;;;;5056446;28;20028;-83
2021/11/26 07:20:46;;;;;;;46.67;27.70;;;3.10;99.90;;;;;;5053920;28;20447;-83
2021/11/26 07:23:12;;;;;;;45.13;27.20;;;3.10;99.90;;;;;;5055999;28;20024;-83
2021/11/26 07:25:38;;;;;;;46.97;27.38;;;3.00;99.90;;;;;;5052221;28;20394;-83
2021/11/26 07:28:04;;;;;;;45.05;25.95;;;3.00;99.90;;;;;;5054762;28;20039;-83
2021/11/26 07:30:30;;;;;;;45.58;26.73;;;2.90;99.90;;;;;;5055586;28;20386;-83
2021/11/26 07:32:56;;;;;;;45.92;27.70;;;3.30;99.90;;;;;;5056084;28;20098;-84
2021/11/26 07:35:21;;;;;;;58.50;33.00;;;3.00;99.90;;;;;;5055844;28;20029;-83
2021/11/26 07:37:47;;;;;;;48.83;29.30;;;3.00;99.90;;;;;;5054828;28;20028;-83
2021/11/26 07:40:15;;;;;;;50.40;29.52;;;3.00;99.90;;;;;;5052596;28;20075;-83
2021/11/26 07:42:41;;;;;;;48.38;27.77;;;3.10;99.90;;;;;;5057315;28;20025;-83
2021/11/26 07:45:08;;;;;;;46.83;27.13;;;3.00;99.90;;;;;;5056080;28;20032;-83
2021/11/26 07:47:34;;;;;;;47.25;27.88;;;3.00;99.90;;;;;;5055374;28;20458;-84
2021/11/26 07:49:59;;;;;;;49.55;29.42;;;3.00;99.90;;;;;;5055635;28;20024;-83
2021/11/26 07:52:25;;;;;;;48.33;28.35;;;3.00;99.90;;;;;;5051171;28;20036;-83
2021/11/26 07:54:51;;;;;;;47.35;28.45;;;3.50;99.90;;;;;;5057683;28;20021;-83
2021/11/26 07:57:17;;;;;;;48.03;28.02;;;3.10;99.90;;;;;;5054993;28;20116;-83
2021/11/26 07:59:42;;;;;;;46.42;28.02;;;3.10;99.90;;;;;;5045789;28;20557;-83
2021/11/26 08:02:08;;;;;;;45.10;26.95;;;3.10;99.90;;;;;;5055343;28;20055;-83
2021/11/26 08:04:34;;;;;;;50.13;28.63;;;3.20;99.90;;;;;;5050562;28;20034;-83
2021/11/26 08:06:59;;;;;;;48.65;29.75;;;3.20;99.90;;;;;;5055544;28;20032;-83
2021/11/26 08:09:25;;;;;;;55.40;32.70;;;3.20;99.90;;;;;;5054702;28;20021;-85
2021/11/26 08:11:51;;;;;;;42.60;25.48;;;3.30;99.90;;;;;;5054706;28;20029;-85
2021/11/26 08:14:18;;;;;;;52.47;31.50;;;3.10;99.90;;;;;;5055477;28;20028;-85
2021/11/26 08:16:45;;;;;;;55.95;33.05;;;3.10;99.90;;;;;;5053182;28;20025;-85
2021/11/26 08:19:11;;;;;;;43.55;27.40;;;3.20;99.90;;;;;;5052338;28;20031;-85
2021/11/26 08:21:38;;;;;;;43.97;27.00;;;3.60;99.90;;;;;;5049514;28;20029;-85
2021/11/26 08:24:05;;;;;;;44.47;27.63;;;3.20;99.90;;;;;;5054813;28;20029;-85
2021/11/26 08:26:32;;;;;;;43.58;27.77;;;3.10;99.90;;;;;;5055091;28;20035;-85
2021/11/26 08:28:58;;;;;;;70.50;37.38;;;3.00;99.90;;;;;;5055028;28;20388;-85
2021/11/26 08:31:24;;;;;;;85.78;44.95;;;3.10;99.90;;;;;;5034888;28;20029;-85
2021/11/26 08:33:49;;;;;;;58.13;34.03;;;3.20;99.90;;;;;;5056933;28;20029;-85
2021/11/26 08:36:15;;;;;;;80.68;43.70;;;3.30;99.90;;;;;;5054580;28;20075;-85
2021/11/26 08:38:41;;;;;;;84.07;45.83;;;3.30;99.90;;;;;;5043712;28;20029;-85
2021/11/26 08:41:06;;;;;;;69.93;39.50;;;3.80;99.90;;;;;;5054236;28;20032;-85
2021/11/26 08:43:32;;;;;;;57.15;33.28;;;3.40;99.90;;;;;;5049610;28;20025;-85
2021/11/26 08:45:58;;;;;;;45.45;29.17;;;3.30;99.90;;;;;;5055170;28;20424;-85
2021/11/26 08:48:24;;;;;;;81.88;44.33;;;3.80;99.90;;;;;;5052799;28;20071;-85
2021/11/26 08:50:50;;;;;;;58.20;33.15;;;3.40;99.90;;;;;;5054126;28;20025;-85
2021/11/26 08:53:17;;;;;;;51.42;30.90;;;3.50;99.90;;;;;;5054669;28;20028;-85
2021/11/26 08:55:47;;;;;;;82.85;43.28;;;3.30;99.90;;;;;;5046479;28;20036;-85
2021/11/26 08:58:14;;;;;;;46.50;28.83;;;3.40;99.90;;;;;;5051328;28;20033;-85
2021/11/26 09:00:41;;;;;;;62.92;34.22;;;3.60;99.90;;;;;;5056238;28;20079;-85
2021/11/26 09:03:07;;;;;;;47.00;28.60;;;3.50;99.90;;;;;;5054628;28;20055;-85
2021/11/26 09:05:34;;;;;;;57.42;32.75;;;3.50;99.90;;;;;;5054232;28;20069;-85
2021/11/26 09:08:02;;;;;;;63.45;37.50;;;3.20;99.90;;;;;;5053770;28;20036;-85
2021/11/26 09:10:31;;;;;;;43.03;27.38;;;3.30;99.90;;;;;;5049958;28;20021;-85
2021/11/26 09:12:57;;;;;;;43.72;27.50;;;3.30;99.90;;;;;;5055320;28;20078;-84
2021/11/26 09:15:23;;;;;;;50.60;29.35;;;3.30;99.90;;;;;;5053181;28;20040;-85
2021/11/26 09:17:50;;;;;;;50.28;29.98;;;3.30;99.90;;;;;;5053613;28;20096;-85
2021/11/26 09:20:16;;;;;;;51.40;30.05;;;3.40;99.90;;;;;;5053883;28;20067;-85
2021/11/26 09:22:42;;;;;;;48.67;28.25;;;3.40;99.90;;;;;;5050088;28;20462;-85
2021/11/26 09:25:08;;;;;;;47.72;28.52;;;3.50;99.90;;;;;;5052674;28;20025;-85
2021/11/26 09:27:34;;;;;;;48.63;29.65;;;3.50;99.90;;;;;;5045749;28;20777;-85
2021/11/26 09:30:00;;;;;;;55.40;32.05;;;3.50;99.90;;;;;;5053857;28;20036;-85
2021/11/26 09:32:26;;;;;;;65.32;35.60;;;3.70;99.90;;;;;;5053869;28;20409;-85
2021/11/26 09:34:52;;;;;;;55.80;32.88;;;3.80;99.90;;;;;;5052797;28;20031;-85
2021/11/26 09:37:18;;;;;;;71.78;39.20;;;3.60;99.90;;;;;;5050055;28;20037;-85
2021/11/26 09:39:44;;;;;;;61.85;33.03;;;3.60;99.90;;;;;;5055458;28;20488;-85
2021/11/26 09:42:10;;;;;;;426.77;255.20;;;3.50;99.90;;;;;;5053989;28;20024;-85
2021/11/26 09:44:39;;;;;;;79.38;43.38;;;3.60;99.90;;;;;;5043974;28;20379;-85
2021/11/26 09:47:05;;;;;;;102.07;50.13;;;4.00;99.90;;;;;;5053549;28;20124;-86
2021/11/26 09:49:31;;;;;;;160.23;72.95;;;3.70;99.90;;;;;;5050590;28;20037;-85
2021/11/26 09:51:58;;;;;;;47.75;28.77;;;3.90;99.90;;;;;;5054465;28;20033;-85
2021/11/26 09:54:24;;;;;;;50.28;29.40;;;4.10;99.90;;;;;;5051103;28;20024;-85
2021/11/26 09:56:49;;;;;;;114.25;53.90;;;3.60;99.90;;;;;;5053626;28;20025;-85
2021/11/26 09:59:15;;;;;;;43.67;26.05;;;3.60;99.90;;;;;;5053962;28;20508;-85
2021/11/26 10:01:41;;;;;;;45.28;27.20;;;3.70;99.90;;;;;;5050164;28;20018;-85
2021/11/26 10:04:17;;;;;;;78.32;39.92;;;3.80;99.90;;;;;;5051927;28;20034;-84
2021/11/26 10:06:44;;;;;;;47.15;27.98;;;3.70;99.90;;;;;;5053902;28;20083;-85
2021/11/26 10:09:16;;;;;;;37.55;24.30;;;3.90;99.90;;;;;;5044966;28;20413;-85
2021/11/26 10:11:55;;;;;;;78.75;40.60;;;4.40;99.90;;;;;;5053787;28;20025;-85
2021/11/26 10:14:25;;;;;;;101.22;49.45;;;4.50;99.90;;;;;;5042398;28;20029;-85
2021/11/26 10:16:56;;;;;;;93.15;49.65;;;4.10;99.90;;;;;;5052438;28;20378;-85
2021/11/26 10:19:46;;;;;;;37.80;23.85;;;4.10;99.90;;;;;;5049332;28;20075;-85
2021/11/26 10:22:18;;;;;;;60.83;35.05;;;4.10;99.90;;;;;;5045177;28;20024;-84
2021/11/26 10:25:10;;;;;;;105.45;48.08;;;4.20;99.90;;;;;;5055406;28;20049;-85
2021/11/26 10:27:44;;;;;;;35.25;21.08;;;4.30;99.90;;;;;;5053032;28;20041;-85
2021/11/26 10:30:29;;;;;;;41.22;23.98;;;3.90;99.90;;;;;;5056225;28;20017;-85
2021/11/26 10:33:05;;;;;;;36.47;21.85;;;3.90;99.90;;;;;;5057487;28;20386;-85
2021/11/26 10:35:40;;;;;;;57.53;37.42;;;3.80;99.90;;;;;;5056844;28;20021;-85
2021/11/26 10:38:07;;;;;;;67.97;48.60;;;3.80;99.90;;;;;;5056961;28;20035;-85
2021/11/26 10:40:39;;;;;;;40.60;25.33;;;3.90;99.90;;;;;;5052463;28;20025;-85
2021/11/26 10:43:19;;;;;;;40.88;25.58;;;4.00;99.90;;;;;;5056287;28;20032;-86
2021/11/26 10:48:44;;;;;;;36.72;23.08;;;4.60;99.90;;;;;;5056564;28;20029;-85
2021/11/26 10:59:11;;;;;;;34.90;22.65;;;5.10;99.90;;;;;;5056643;28;20031;-85
2021/11/26 11:01:44;;;;;;;35.10;21.85;;;5.50;99.90;;;;;;5053690;28;20405;-86
2021/11/26 11:04:15;;;;;;;31.55;20.23;;;5.20;99.90;;;;;;5054725;28;20032;-86
2021/11/26 11:06:41;;;;;;;34.75;22.70;;;5.50;99.90;;;;;;5056673;28;20512;-85
2021/11/26 11:09:10;;;;;;;165.73;61.28;;;5.30;99.90;;;;;;5056409;28;20076;-85
2021/11/26 11:11:37;;;;;;;41.72;23.30;;;4.90;99.90;;;;;;5056285;28;20029;-85
2021/11/26 11:14:17;;;;;;;36.88;22.45;;;5.00;99.90;;;;;;5056279;28;20047;-86
2021/11/26 11:16:54;;;;;;;33.58;22.35;;;4.90;99.90;;;;;;5049954;28;20041;-85
2021/11/26 11:19:21;;;;;;;35.75;22.15;;;4.90;99.90;;;;;;5052273;28;20026;-85
2021/11/26 11:21:49;;;;;;;89.32;43.28;;;5.20;99.90;;;;;;5057123;28;20025;-85
2021/11/26 11:24:16;;;;;;;34.00;21.25;;;5.20;99.90;;;;;;5054528;28;20122;-85
2021/11/26 11:26:46;;;;;;;31.27;20.75;;;5.60;99.90;;;;;;5056298;28;20079;-85
2021/11/26 11:29:29;;;;;;;32.55;21.27;;;5.30;99.90;;;;;;5056125;28;20081;-85
2021/11/26 11:31:58;;;;;;;36.15;22.30;;;5.20;99.90;;;;;;5055182;28;20024;-85
2021/11/26 11:34:26;;;;;;;32.00;20.45;;;5.10;99.90;;;;;;5051620;28;20036;-85
2021/11/26 11:36:55;;;;;;;32.67;20.92;;;5.00;99.90;;;;;;5057827;28;20438;-85
2021/11/26 11:39:22;;;;;;;51.83;28.83;;;4.90;99.90;;;;;;5056205;28;20455;-85
2021/11/26 11:41:59;;;;;;;33.47;22.05;;;4.90;99.90;;;;;;5055551;28;20033;-85
2021/11/26 11:44:29;;;;;;;30.08;19.10;;;4.90;99.90;;;;;;5055822;28;20146;-85
2021/11/26 11:46:57;;;;;;;30.90;19.30;;;5.10;99.90;;;;;;5054969;28;20119;-85
2021/11/26 11:49:33;;;;;;;31.25;20.33;;;5.10;99.90;;;;;;5051278;28;20082;-85
2021/11/26 11:52:03;;;;;;;29.13;19.45;;;5.00;99.90;;;;;;5065860;28;20119;-85
2021/11/26 11:54:44;;;;;;;35.13;21.65;;;5.00;99.90;;;;;;5056355;28;20029;-85
2021/11/26 11:57:28;;;;;;;36.38;23.65;;;5.00;99.90;;;;;;5055736;28;20045;-85
2021/11/26 12:00:17;;;;;;;53.88;33.05;;;5.00;99.90;;;;;;5054008;28;20025;-85
2021/11/26 12:02:47;;;;;;;38.00;23.55;;;5.00;99.90;;;;;;5053844;28;20044;-85
2021/11/26 12:05:39;;;;;;;43.65;27.10;;;5.00;99.90;;;;;;5056080;28;20558;-86
2021/11/26 12:08:14;;;;;;;33.85;22.23;;;5.10;99.90;;;;;;5073279;28;20048;-85
2021/11/26 12:10:45;;;;;;;27.77;17.40;;;4.90;99.90;;;;;;5073039;28;20020;-85
2021/11/26 12:13:35;;;;;;;32.90;21.08;;;5.10;99.90;;;;;;5073284;28;20107;-85
2021/11/26 12:16:05;;;;;;;28.70;18.38;;;4.80;99.90;;;;;;5085364;28;20030;-85
2021/11/26 12:18:43;;;;;;;26.85;16.98;;;5.10;99.90;;;;;;5073670;28;20392;-85
2021/11/26 12:21:09;;;;;;;26.63;16.75;;;4.90;99.90;;;;;;5074900;28;20400;-84
2021/11/26 12:23:49;;;;;;;26.02;18.00;;;5.20;99.90;;;;;;5074951;28;20021;-85
2021/11/26 12:26:22;;;;;;;31.98;21.00;;;4.80;99.90;;;;;;5074943;28;20529;-85
2021/11/26 12:28:53;;;;;;;27.27;18.60;;;4.80;99.90;;;;;;5073498;28;20044;-85
2021/11/26 12:31:29;;;;;;;23.83;16.48;;;5.00;99.90;;;;;;5071157;28;20178;-85
2021/11/26 12:34:03;;;;;;;44.75;28.70;;;5.30;99.90;;;;;;5088081;28;20569;-85
2021/11/26 12:36:55;;;;;;;25.20;16.05;;;5.00;99.90;;;;;;5073810;28;20031;-85
2021/11/26 12:39:29;;;;;;;35.50;22.35;;;4.90;99.90;;;;;;5069333;28;20044;-85
2021/11/26 12:42:00;;;;;;;50.72;31.45;;;4.80;99.90;;;;;;5073538;28;20028;-85
2021/11/26 12:44:32;;;;;;;25.90;17.23;;;4.90;99.90;;;;;;5074588;28;20024;-85
2021/11/26 12:47:06;;;;;;;30.77;19.33;;;5.10;99.90;;;;;;5074018;28;20036;-85
2021/11/26 12:52:11;;;;;;;55.47;30.85;;;5.50;99.90;;;;;;5073812;28;20469;-85
2021/11/26 12:54:42;;;;;;;32.05;21.02;;;5.10;99.90;;;;;;5075822;28;20017;-84